sensor_id;sensor_type;location;lat;lon;timestamp;temperature;humidity
7155;DHT22;3619;53.784;10.440;2023-11-21T00:01:08;6.80;99.90
7155;DHT22;3619;53.784;10.440;2023-11-21T00:03:35;6.80;99.90
7155;DHT22;3619;53.784;10.440;2023-11-21T00:06:04;6.80;99.90
7155;DHT22;3619;53.784;10.440;2023-11-21T00:08:34;6.80;99.90
7155;DHT22;3619;53.784;10.440;2023-11-21T00:11:01;6.70;99.90
7155;DHT22;3619;53.784;10.440;2023-11-21T00:13:28;6.70;99.90
7155;DHT22;3619;53.784;10.440;2023-11-21T00:15:54;6.70;99.90
7155;DHT22;3619;53.784;10.440;2023-11-21T00:18:22;6.60;99.90
7155;DHT22;3619;53.784;10.440;2023-11-21T00:20:49;6.60;99.90
7155;DHT22;3619;53.784;10.440;2023-11-21T00:23:17;6.60;99.90
7155;DHT22;3619;53.784;10.440;2023-11-21T00:25:44;6.60;99.90
7155;DHT22;3619;53.784;10.440;2023-11-21T00:28:11;6.60;99.90
7155;DHT22;3619;53.784;10.440;2023-11-21T00:30:38;6.60;99.90
7155;DHT22;3619;53.784;10.440;2023-11-21T00:33:05;6.60;99.90
7155;DHT22;3619;53.784;10.440;2023-11-21T00:35:31;6.50;99.90
7155;DHT22;3619;53.784;10.440;2023-11-21T00:37:58;6.50;99.90
7155;DHT22;3619;53.784;10.440;2023-11-21T00:40:26;6.50;99.90
7155;DHT22;3619;53.784;10.440;2023-11-21T00:42:53;6.50;99.90
7155;DHT22;3619;53.784;10.440;2023-11-21T00:45:21;6.50;99.90
7155;DHT22;3619;53.784;10.440;2023-11-21T00:47:48;6.50;99.90
7155;DHT22;3619;53.784;10.440;2023-11-21T00:50:15;6.50;99.90
7155;DHT22;3619;53.784;10.440;2023-11-21T00:52:42;6.50;99.90
7155;DHT22;3619;53.784;10.440;2023-11-21T00:55:09;6.40;99.90
7155;DHT22;3619;53.784;10.440;2023-11-21T00:57:38;6.50;99.90
7155;DHT22;3619;53.784;10.440;2023-11-21T01:00:06;6.50;99.90
7155;DHT22;3619;53.784;10.440;2023-11-21T01:02:36;6.50;99.90
7155;DHT22;3619;53.784;10.440;2023-11-21T01:05:03;6.40;99.90
7155;DHT22;3619;53.784;10.440;2023-11-21T01:07:32;6.40;99.90
7155;DHT22;3619;53.784;10.440;2023-11-21T01:09:59;6.40;99.90
7155;DHT22;3619;53.784;10.440;2023-11-21T01:12:26;6.50;99.90
7155;DHT22;3619;53.784;10.440;2023-11-21T01:14:54;6.50;99.90
7155;DHT22;3619;53.784;10.440;2023-11-21T01:17:21;6.40;99.90
7155;DHT22;3619;53.784;10.440;2023-11-21T01:19:49;6.40;99.90
7155;DHT22;3619;53.784;10.440;2023-11-21T01:22:16;6.40;99.90
7155;DHT22;3619;53.784;10.440;2023-11-21T01:24:47;6.40;99.90
7155;DHT22;3619;53.784;10.440;2023-11-21T01:27:16;6.30;99.90
7155;DHT22;3619;53.784;10.440;2023-11-21T01:29:44;6.30;99.90
7155;DHT22;3619;53.784;10.440;2023-11-21T01:32:12;6.30;99.90
7155;DHT22;3619;53.784;10.440;2023-11-21T01:34:39;6.40;99.90
7155;DHT22;3619;53.784;10.440;2023-11-21T01:37:06;6.40;99.90
7155;DHT22;3619;53.784;10.440;2023-11-21T01:39:32;6.40;99.90
7155;DHT22;3619;53.784;10.440;2023-11-21T01:41:59;6.30;99.90
7155;DHT22;3619;53.784;10.440;2023-11-21T01:44:26;6.30;99.90
7155;DHT22;3619;53.784;10.440;2023-11-21T01:46:53;6.30;99.90
7155;DHT22;3619;53.784;10.440;2023-11-21T01:49:21;6.30;99.90
7155;DHT22;3619;53.784;10.440;2023-11-21T01:51:49;6.40;99.90
7155;DHT22;3619;53.784;10.440;2023-11-21T01:54:17;6.30;99.90
7155;DHT22;3619;53.784;10.440;2023-11-21T01:56:46;6.40;99.90
7155;DHT22;3619;53.784;10.440;2023-11-21T01:59:14;6.40;99.90
7155;DHT22;3619;53.784;10.440;2023-11-21T02:01:44;6.40;99.90
7155;DHT22;3619;53.784;10.440;2023-11-21T02:04:13;6.40;99.90
7155;DHT22;3619;53.784;10.440;2023-11-21T02:06:42;6.40;99.90
7155;DHT22;3619;53.784;10.440;2023-11-21T02:09:10;6.40;99.90
7155;DHT22;3619;53.784;10.440;2023-11-21T02:11:40;6.40;99.90
7155;DHT22;3619;53.784;10.440;2023-11-21T02:14:07;6.30;99.90
7155;DHT22;3619;53.784;10.440;2023-11-21T02:16:35;6.30;99.90
7155;DHT22;3619;53.784;10.440;2023-11-21T02:19:03;6.30;99.90
7155;DHT22;3619;53.784;10.440;2023-11-21T02:21:34;6.30;99.90
7155;DHT22;3619;53.784;10.440;2023-11-21T02:24:03;6.30;99.90
7155;DHT22;3619;53.784;10.440;2023-11-21T02:26:31;6.40;99.90
7155;DHT22;3619;53.784;10.440;2023-11-21T02:28:58;6.40;99.90
7155;DHT22;3619;53.784;10.440;2023-11-21T02:31:24;6.30;99.90
7155;DHT22;3619;53.784;10.440;2023-11-21T02:33:52;6.30;99.90
7155;DHT22;3619;53.784;10.440;2023-11-21T02:36:19;6.40;99.90
7155;DHT22;3619;53.784;10.440;2023-11-21T02:38:47;6.30;99.90
7155;DHT22;3619;53.784;10.440;2023-11-21T02:41:15;6.40;99.90
7155;DHT22;3619;53.784;10.440;2023-11-21T02:43:42;6.30;99.90
7155;DHT22;3619;53.784;10.440;2023-11-21T02:46:09;6.30;99.90
7155;DHT22;3619;53.784;10.440;2023-11-21T02:48:36;6.40;99.90
7155;DHT22;3619;53.784;10.440;2023-11-21T02:51:03;6.30;99.90
7155;DHT22;3619;53.784;10.440;2023-11-21T02:53:30;6.40;99.90
7155;DHT22;3619;53.784;10.440;2023-11-21T02:55:56;6.40;99.90
7155;DHT22;3619;53.784;10.440;2023-11-21T02:58:24;6.40;99.90
7155;DHT22;3619;53.784;10.440;2023-11-21T03:00:51;6.30;99.90
7155;DHT22;3619;53.784;10.440;2023-11-21T03:03:20;6.30;99.90
7155;DHT22;3619;53.784;10.440;2023-11-21T03:05:49;6.30;99.90
7155;DHT22;3619;53.784;10.440;2023-11-21T03:08:16;6.30;99.90
7155;DHT22;3619;53.784;10.440;2023-11-21T03:10:42;6.30;99.90
7155;DHT22;3619;53.784;10.440;2023-11-21T03:13:09;6.30;99.90
7155;DHT22;3619;53.784;10.440;2023-11-21T03:15:38;6.30;99.90
7155;DHT22;3619;53.784;10.440;2023-11-21T03:18:04;6.30;99.90
7155;DHT22;3619;53.784;10.440;2023-11-21T03:20:31;6.20;99.90
7155;DHT22;3619;53.784;10.440;2023-11-21T03:22:58;6.20;99.90
7155;DHT22;3619;53.784;10.440;2023-11-21T03:25:26;6.20;99.90
7155;DHT22;3619;53.784;10.440;2023-11-21T03:27:52;6.20;99.90
7155;DHT22;3619;53.784;10.440;2023-11-21T03:30:19;6.20;99.90
7155;DHT22;3619;53.784;10.440;2023-11-21T03:32:48;6.20;99.90
7155;DHT22;3619;53.784;10.440;2023-11-21T03:35:14;6.20;99.90
7155;DHT22;3619;53.784;10.440;2023-11-21T03:37:41;6.20;99.90
7155;DHT22;3619;53.784;10.440;2023-11-21T03:40:09;6.20;99.90
7155;DHT22;3619;53.784;10.440;2023-11-21T03:42:38;6.30;99.90
7155;DHT22;3619;53.784;10.440;2023-11-21T03:45:05;6.20;99.90
7155;DHT22;3619;53.784;10.440;2023-11-21T03:47:32;6.20;99.90
7155;DHT22;3619;53.784;10.440;2023-11-21T03:50:01;6.30;99.90
7155;DHT22;3619;53.784;10.440;2023-11-21T03:52:29;6.30;99.90
7155;DHT22;3619;53.784;10.440;2023-11-21T03:54:55;6.30;99.90
7155;DHT22;3619;53.784;10.440;2023-11-21T03:57:22;6.30;99.90
7155;DHT22;3619;53.784;10.440;2023-11-21T03:59:49;6.30;99.90
7155;DHT22;3619;53.784;10.440;2023-11-21T04:02:17;6.30;99.90
7155;DHT22;3619;53.784;10.440;2023-11-21T04:04:44;6.20;99.90
7155;DHT22;3619;53.784;10.440;2023-11-21T04:07:12;6.20;99.90
7155;DHT22;3619;53.784;10.440;2023-11-21T04:09:40;6.20;99.90
7155;DHT22;3619;53.784;10.440;2023-11-21T04:12:08;6.20;99.90
7155;DHT22;3619;53.784;10.440;2023-11-21T04:14:35;6.30;99.90
7155;DHT22;3619;53.784;10.440;2023-11-21T04:17:02;6.30;99.90
7155;DHT22;3619;53.784;10.440;2023-11-21T04:19:29;6.30;99.90
7155;DHT22;3619;53.784;10.440;2023-11-21T04:21:56;6.30;99.90
7155;DHT22;3619;53.784;10.440;2023-11-21T04:24:25;6.30;99.90
7155;DHT22;3619;53.784;10.440;2023-11-21T04:26:52;6.30;99.90
7155;DHT22;3619;53.784;10.440;2023-11-21T04:29:20;6.30;99.90
7155;DHT22;3619;53.784;10.440;2023-11-21T04:31:46;6.30;99.90
7155;DHT22;3619;53.784;10.440;2023-11-21T04:34:14;6.30;99.90
7155;DHT22;3619;53.784;10.440;2023-11-21T04:36:41;6.30;99.90
7155;DHT22;3619;53.784;10.440;2023-11-21T04:39:08;6.30;99.90
7155;DHT22;3619;53.784;10.440;2023-11-21T04:41:36;6.30;99.90
7155;DHT22;3619;53.784;10.440;2023-11-21T04:44:05;6.30;99.90
7155;DHT22;3619;53.784;10.440;2023-11-21T04:46:32;6.30;99.90
7155;DHT22;3619;53.784;10.440;2023-11-21T04:48:59;6.40;99.90
7155;DHT22;3619;53.784;10.440;2023-11-21T04:51:26;6.30;99.90
7155;DHT22;3619;53.784;10.440;2023-11-21T04:53:53;6.30;99.90
7155;DHT22;3619;53.784;10.440;2023-11-21T04:56:20;6.30;99.90
7155;DHT22;3619;53.784;10.440;2023-11-21T04:58:48;6.40;99.90
7155;DHT22;3619;53.784;10.440;2023-11-21T05:01:15;6.30;99.90
7155;DHT22;3619;53.784;10.440;2023-11-21T05:03:42;6.30;99.90
7155;DHT22;3619;53.784;10.440;2023-11-21T05:06:10;6.30;99.90
7155;DHT22;3619;53.784;10.440;2023-11-21T05:08:37;6.40;99.90
7155;DHT22;3619;53.784;10.440;2023-11-21T05:11:04;6.30;99.90
7155;DHT22;3619;53.784;10.440;2023-11-21T05:13:34;6.30;99.90
7155;DHT22;3619;53.784;10.440;2023-11-21T05:16:02;6.30;99.90
7155;DHT22;3619;53.784;10.440;2023-11-21T05:18:32;6.30;99.90
7155;DHT22;3619;53.784;10.440;2023-11-21T05:21:00;6.20;99.90
7155;DHT22;3619;53.784;10.440;2023-11-21T05:23:27;6.30;99.90
7155;DHT22;3619;53.784;10.440;2023-11-21T05:25:54;6.30;99.90
7155;DHT22;3619;53.784;10.440;2023-11-21T05:28:22;6.30;99.90
7155;DHT22;3619;53.784;10.440;2023-11-21T05:30:48;6.30;99.90
7155;DHT22;3619;53.784;10.440;2023-11-21T05:33:17;6.30;99.90
7155;DHT22;3619;53.784;10.440;2023-11-21T05:35:44;6.30;99.90
7155;DHT22;3619;53.784;10.440;2023-11-21T05:38:11;6.30;99.90
7155;DHT22;3619;53.784;10.440;2023-11-21T05:40:38;6.30;99.90
7155;DHT22;3619;53.784;10.440;2023-11-21T05:43:05;6.20;99.90
7155;DHT22;3619;53.784;10.440;2023-11-21T05:45:32;6.20;99.90
7155;DHT22;3619;53.784;10.440;2023-11-21T05:48:00;6.20;99.90
7155;DHT22;3619;53.784;10.440;2023-11-21T05:50:29;6.30;99.90
7155;DHT22;3619;53.784;10.440;2023-11-21T05:52:56;6.30;99.90
7155;DHT22;3619;53.784;10.440;2023-11-21T05:55:25;6.30;99.90
7155;DHT22;3619;53.784;10.440;2023-11-21T05:57:53;6.30;99.90
7155;DHT22;3619;53.784;10.440;2023-11-21T06:00:20;6.30;99.90
7155;DHT22;3619;53.784;10.440;2023-11-21T06:02:48;6.30;99.90
7155;DHT22;3619;53.784;10.440;2023-11-21T06:05:18;6.30;99.90
7155;DHT22;3619;53.784;10.440;2023-11-21T06:07:46;6.20;99.90
7155;DHT22;3619;53.784;10.440;2023-11-21T06:10:13;6.20;99.90
7155;DHT22;3619;53.784;10.440;2023-11-21T06:12:40;6.20;99.90
7155;DHT22;3619;53.784;10.440;2023-11-21T06:15:09;6.30;99.90
7155;DHT22;3619;53.784;10.440;2023-11-21T06:17:39;6.40;99.90
7155;DHT22;3619;53.784;10.440;2023-11-21T06:20:08;6.30;99.90
7155;DHT22;3619;53.784;10.440;2023-11-21T06:22:35;6.30;99.90
7155;DHT22;3619;53.784;10.440;2023-11-21T06:25:05;6.30;99.90
7155;DHT22;3619;53.784;10.440;2023-11-21T06:27:33;6.30;99.90
7155;DHT22;3619;53.784;10.440;2023-11-21T06:30:01;6.30;99.90
7155;DHT22;3619;53.784;10.440;2023-11-21T06:32:29;6.30;99.90
7155;DHT22;3619;53.784;10.440;2023-11-21T06:34:56;6.30;99.90
7155;DHT22;3619;53.784;10.440;2023-11-21T06:37:25;6.30;99.90
7155;DHT22;3619;53.784;10.440;2023-11-21T06:39:52;6.30;99.90
7155;DHT22;3619;53.784;10.440;2023-11-21T06:42:21;6.30;99.90
7155;DHT22;3619;53.784;10.440;2023-11-21T06:44:48;6.20;99.90
7155;DHT22;3619;53.784;10.440;2023-11-21T06:47:17;6.30;99.90
7155;DHT22;3619;53.784;10.440;2023-11-21T06:49:46;6.30;99.90
7155;DHT22;3619;53.784;10.440;2023-11-21T06:52:13;6.30;99.90
7155;DHT22;3619;53.784;10.440;2023-11-21T06:54:40;6.30;99.90
7155;DHT22;3619;53.784;10.440;2023-11-21T06:57:07;6.30;99.90
7155;DHT22;3619;53.784;10.440;2023-11-21T06:59:35;6.30;99.90
7155;DHT22;3619;53.784;10.440;2023-11-21T07:02:02;6.30;99.90
7155;DHT22;3619;53.784;10.440;2023-11-21T07:04:30;6.30;99.90
7155;DHT22;3619;53.784;10.440;2023-11-21T07:06:57;6.20;99.90
7155;DHT22;3619;53.784;10.440;2023-11-21T07:09:24;6.20;99.90
7155;DHT22;3619;53.784;10.440;2023-11-21T07:11:51;6.20;99.90
7155;DHT22;3619;53.784;10.440;2023-11-21T07:14:18;6.30;99.90
7155;DHT22;3619;53.784;10.440;2023-11-21T07:16:47;6.30;99.90
7155;DHT22;3619;53.784;10.440;2023-11-21T07:19:14;6.30;99.90
7155;DHT22;3619;53.784;10.440;2023-11-21T07:21:41;6.30;99.90
7155;DHT22;3619;53.784;10.440;2023-11-21T07:24:08;6.20;99.90
7155;DHT22;3619;53.784;10.440;2023-11-21T07:26:36;6.30;99.90
7155;DHT22;3619;53.784;10.440;2023-11-21T07:29:04;6.30;99.90
7155;DHT22;3619;53.784;10.440;2023-11-21T07:31:31;6.30;99.90
7155;DHT22;3619;53.784;10.440;2023-11-21T07:34:01;6.30;99.90
7155;DHT22;3619;53.784;10.440;2023-11-21T07:36:28;6.30;99.90
7155;DHT22;3619;53.784;10.440;2023-11-21T07:38:54;6.30;99.90
7155;DHT22;3619;53.784;10.440;2023-11-21T07:41:21;6.30;99.90
7155;DHT22;3619;53.784;10.440;2023-11-21T07:43:48;6.30;99.90
7155;DHT22;3619;53.784;10.440;2023-11-21T07:46:15;6.30;99.90
7155;DHT22;3619;53.784;10.440;2023-11-21T07:48:43;6.30;99.90
7155;DHT22;3619;53.784;10.440;2023-11-21T07:51:12;6.30;99.90
7155;DHT22;3619;53.784;10.440;2023-11-21T07:53:39;6.30;99.90
7155;DHT22;3619;53.784;10.440;2023-11-21T07:56:08;6.20;99.90
7155;DHT22;3619;53.784;10.440;2023-11-21T07:58:35;6.30;99.90
7155;DHT22;3619;53.784;10.440;2023-11-21T08:01:02;6.30;99.90
7155;DHT22;3619;53.784;10.440;2023-11-21T08:03:29;6.20;99.90
7155;DHT22;3619;53.784;10.440;2023-11-21T08:05:56;6.30;99.90
7155;DHT22;3619;53.784;10.440;2023-11-21T08:08:24;6.20;99.90
7155;DHT22;3619;53.784;10.440;2023-11-21T08:10:53;6.30;99.90
7155;DHT22;3619;53.784;10.440;2023-11-21T08:13:23;6.20;99.90
7155;DHT22;3619;53.784;10.440;2023-11-21T08:15:49;6.20;99.90
7155;DHT22;3619;53.784;10.440;2023-11-21T08:18:16;6.20;99.90
7155;DHT22;3619;53.784;10.440;2023-11-21T08:20:44;6.30;99.90
7155;DHT22;3619;53.784;10.440;2023-11-21T08:23:14;6.30;99.90
7155;DHT22;3619;53.784;10.440;2023-11-21T08:25:43;6.30;99.90
7155;DHT22;3619;53.784;10.440;2023-11-21T08:28:10;6.30;99.90
7155;DHT22;3619;53.784;10.440;2023-11-21T08:30:37;6.30;99.90
7155;DHT22;3619;53.784;10.440;2023-11-21T08:33:05;6.30;99.90
7155;DHT22;3619;53.784;10.440;2023-11-21T08:35:32;6.30;99.90
7155;DHT22;3619;53.784;10.440;2023-11-21T08:38:00;6.20;99.90
7155;DHT22;3619;53.784;10.440;2023-11-21T08:40:27;6.20;99.90
7155;DHT22;3619;53.784;10.440;2023-11-21T08:42:55;6.20;99.90
7155;DHT22;3619;53.784;10.440;2023-11-21T08:45:24;6.20;99.90
7155;DHT22;3619;53.784;10.440;2023-11-21T08:47:52;6.20;99.90
7155;DHT22;3619;53.784;10.440;2023-11-21T08:50:19;6.20;99.90
7155;DHT22;3619;53.784;10.440;2023-11-21T08:52:47;6.10;99.90
7155;DHT22;3619;53.784;10.440;2023-11-21T08:55:14;6.10;99.90
7155;DHT22;3619;53.784;10.440;2023-11-21T08:57:43;6.20;99.90
7155;DHT22;3619;53.784;10.440;2023-11-21T09:00:13;6.20;99.90
7155;DHT22;3619;53.784;10.440;2023-11-21T09:02:43;6.30;99.90
7155;DHT22;3619;53.784;10.440;2023-11-21T09:05:11;6.30;99.90
7155;DHT22;3619;53.784;10.440;2023-11-21T09:07:40;6.30;99.90
7155;DHT22;3619;53.784;10.440;2023-11-21T09:10:08;6.20;99.90
7155;DHT22;3619;53.784;10.440;2023-11-21T09:12:35;6.20;99.90
7155;DHT22;3619;53.784;10.440;2023-11-21T09:15:04;6.20;99.90
7155;DHT22;3619;53.784;10.440;2023-11-21T09:17:34;6.30;99.90
7155;DHT22;3619;53.784;10.440;2023-11-21T09:20:01;6.20;99.90
7155;DHT22;3619;53.784;10.440;2023-11-21T09:22:31;6.30;99.90
7155;DHT22;3619;53.784;10.440;2023-11-21T09:24:58;6.30;99.90
7155;DHT22;3619;53.784;10.440;2023-11-21T09:27:24;6.30;99.90
7155;DHT22;3619;53.784;10.440;2023-11-21T09:29:52;6.30;99.90
7155;DHT22;3619;53.784;10.440;2023-11-21T09:32:20;6.20;99.90
7155;DHT22;3619;53.784;10.440;2023-11-21T09:34:49;6.20;99.90
7155;DHT22;3619;53.784;10.440;2023-11-21T09:37:16;6.20;99.90
7155;DHT22;3619;53.784;10.440;2023-11-21T09:39:45;6.30;99.90
7155;DHT22;3619;53.784;10.440;2023-11-21T09:42:17;6.20;99.90
7155;DHT22;3619;53.784;10.440;2023-11-21T09:44:51;6.20;99.90
7155;DHT22;3619;53.784;10.440;2023-11-21T09:47:21;6.10;99.90
7155;DHT22;3619;53.784;10.440;2023-11-21T09:49:51;6.10;99.90
7155;DHT22;3619;53.784;10.440;2023-11-21T09:52:24;6.20;99.90
7155;DHT22;3619;53.784;10.440;2023-11-21T09:54:52;6.20;99.90
7155;DHT22;3619;53.784;10.440;2023-11-21T09:57:20;6.20;99.90
7155;DHT22;3619;53.784;10.440;2023-11-21T09:59:51;6.20;99.90
7155;DHT22;3619;53.784;10.440;2023-11-21T10:02:22;6.20;99.90
7155;DHT22;3619;53.784;10.440;2023-11-21T10:04:53;6.20;99.90
7155;DHT22;3619;53.784;10.440;2023-11-21T10:07:20;6.20;99.90
7155;DHT22;3619;53.784;10.440;2023-11-21T10:09:47;6.10;99.90
7155;DHT22;3619;53.784;10.440;2023-11-21T10:12:15;6.10;99.90
7155;DHT22;3619;53.784;10.440;2023-11-21T10:14:42;6.10;99.90
7155;DHT22;3619;53.784;10.440;2023-11-21T10:17:10;6.00;99.90
7155;DHT22;3619;53.784;10.440;2023-11-21T10:19:39;6.00;99.90
7155;DHT22;3619;53.784;10.440;2023-11-21T10:22:07;6.00;99.90
7155;DHT22;3619;53.784;10.440;2023-11-21T10:24:35;6.00;99.90
7155;DHT22;3619;53.784;10.440;2023-11-21T10:27:03;6.10;99.90
7155;DHT22;3619;53.784;10.440;2023-11-21T10:29:31;6.10;99.90
7155;DHT22;3619;53.784;10.440;2023-11-21T10:32:02;6.20;99.90
7155;DHT22;3619;53.784;10.440;2023-11-21T10:34:29;6.20;99.90
7155;DHT22;3619;53.784;10.440;2023-11-21T10:36:56;6.20;99.90
7155;DHT22;3619;53.784;10.440;2023-11-21T10:39:25;6.20;99.90
7155;DHT22;3619;53.784;10.440;2023-11-21T10:41:56;6.20;99.90
7155;DHT22;3619;53.784;10.440;2023-11-21T10:44:24;6.10;99.90
7155;DHT22;3619;53.784;10.440;2023-11-21T10:46:53;6.20;99.90
7155;DHT22;3619;53.784;10.440;2023-11-21T10:49:22;6.20;99.90
7155;DHT22;3619;53.784;10.440;2023-11-21T10:51:50;6.20;99.90
7155;DHT22;3619;53.784;10.440;2023-11-21T10:54:19;6.30;99.90
7155;DHT22;3619;53.784;10.440;2023-11-21T10:56:49;6.30;99.90
7155;DHT22;3619;53.784;10.440;2023-11-21T10:59:17;6.30;99.90
7155;DHT22;3619;53.784;10.440;2023-11-21T11:01:47;6.30;99.90
7155;DHT22;3619;53.784;10.440;2023-11-21T11:04:18;6.30;99.90
7155;DHT22;3619;53.784;10.440;2023-11-21T11:06:51;6.30;99.90
7155;DHT22;3619;53.784;10.440;2023-11-21T11:09:21;6.30;99.90
7155;DHT22;3619;53.784;10.440;2023-11-21T11:11:51;6.20;99.90
7155;DHT22;3619;53.784;10.440;2023-11-21T11:14:19;6.30;99.90
7155;DHT22;3619;53.784;10.440;2023-11-21T11:16:53;6.20;99.90
7155;DHT22;3619;53.784;10.440;2023-11-21T11:19:19;6.20;99.90
7155;DHT22;3619;53.784;10.440;2023-11-21T11:21:53;6.20;99.90
7155;DHT22;3619;53.784;10.440;2023-11-21T11:24:41;6.20;99.90
7155;DHT22;3619;53.784;10.440;2023-11-21T11:27:21;6.20;99.90
7155;DHT22;3619;53.784;10.440;2023-11-21T11:30:00;6.10;99.90
7155;DHT22;3619;53.784;10.440;2023-11-21T11:32:37;6.10;99.90
7155;DHT22;3619;53.784;10.440;2023-11-21T11:35:12;6.10;99.90
7155;DHT22;3619;53.784;10.440;2023-11-21T11:37:42;6.10;99.90
7155;DHT22;3619;53.784;10.440;2023-11-21T11:40:11;6.10;99.90
7155;DHT22;3619;53.784;10.440;2023-11-21T11:42:55;6.10;99.90
7155;DHT22;3619;53.784;10.440;2023-11-21T11:45:22;6.10;99.90
7155;DHT22;3619;53.784;10.440;2023-11-21T11:47:56;6.10;99.90
7155;DHT22;3619;53.784;10.440;2023-11-21T11:50:26;6.10;99.90
7155;DHT22;3619;53.784;10.440;2023-11-21T11:52:53;6.10;99.90
7155;DHT22;3619;53.784;10.440;2023-11-21T11:55:24;6.00;99.90
7155;DHT22;3619;53.784;10.440;2023-11-21T11:57:54;6.00;99.90
7155;DHT22;3619;53.784;10.440;2023-11-21T12:00:22;5.90;99.90
7155;DHT22;3619;53.784;10.440;2023-11-21T12:03:04;5.90;99.90
7155;DHT22;3619;53.784;10.440;2023-11-21T12:05:32;6.00;99.90
7155;DHT22;3619;53.784;10.440;2023-11-21T12:08:00;6.00;99.90
7155;DHT22;3619;53.784;10.440;2023-11-21T12:10:28;6.00;99.90
7155;DHT22;3619;53.784;10.440;2023-11-21T12:12:58;6.10;99.90
7155;DHT22;3619;53.784;10.440;2023-11-21T12:15:25;6.10;99.90
7155;DHT22;3619;53.784;10.440;2023-11-21T12:17:55;6.10;99.90
7155;DHT22;3619;53.784;10.440;2023-11-21T12:20:22;6.10;99.90
7155;DHT22;3619;53.784;10.440;2023-11-21T12:22:50;6.10;99.90
7155;DHT22;3619;53.784;10.440;2023-11-21T12:25:20;6.00;99.90
7155;DHT22;3619;53.784;10.440;2023-11-21T12:27:48;6.00;99.90
7155;DHT22;3619;53.784;10.440;2023-11-21T12:30:18;6.00;99.90
7155;DHT22;3619;53.784;10.440;2023-11-21T12:32:47;6.00;99.90
7155;DHT22;3619;53.784;10.440;2023-11-21T12:35:15;5.90;99.90
7155;DHT22;3619;53.784;10.440;2023-11-21T12:37:45;5.90;99.90
7155;DHT22;3619;53.784;10.440;2023-11-21T12:40:13;5.90;99.90
7155;DHT22;3619;53.784;10.440;2023-11-21T12:42:41;5.90;99.90
7155;DHT22;3619;53.784;10.440;2023-11-21T12:45:20;6.00;99.90
7155;DHT22;3619;53.784;10.440;2023-11-21T12:47:49;6.00;99.90
7155;DHT22;3619;53.784;10.440;2023-11-21T12:50:19;6.10;99.90
7155;DHT22;3619;53.784;10.440;2023-11-21T12:52:49;6.10;99.90
7155;DHT22;3619;53.784;10.440;2023-11-21T12:55:18;6.10;99.90
7155;DHT22;3619;53.784;10.440;2023-11-21T12:57:48;6.10;99.90
7155;DHT22;3619;53.784;10.440;2023-11-21T13:00:19;6.00;99.90
7155;DHT22;3619;53.784;10.440;2023-11-21T13:02:54;6.00;99.90
7155;DHT22;3619;53.784;10.440;2023-11-21T13:05:26;5.90;99.90
7155;DHT22;3619;53.784;10.440;2023-11-21T13:07:54;5.80;99.90
7155;DHT22;3619;53.784;10.440;2023-11-21T13:10:23;5.80;99.90
7155;DHT22;3619;53.784;10.440;2023-11-21T13:12:55;5.80;99.90
7155;DHT22;3619;53.784;10.440;2023-11-21T13:15:25;5.70;99.90
7155;DHT22;3619;53.784;10.440;2023-11-21T13:17:54;5.70;99.90
7155;DHT22;3619;53.784;10.440;2023-11-21T13:20:21;5.80;99.90
7155;DHT22;3619;53.784;10.440;2023-11-21T13:22:51;5.70;99.90
7155;DHT22;3619;53.784;10.440;2023-11-21T13:25:20;5.60;99.90
7155;DHT22;3619;53.784;10.440;2023-11-21T13:27:48;5.60;99.90
7155;DHT22;3619;53.784;10.440;2023-11-21T13:30:26;5.50;99.90
7155;DHT22;3619;53.784;10.440;2023-11-21T13:32:53;5.40;99.90
7155;DHT22;3619;53.784;10.440;2023-11-21T13:35:23;5.40;99.90
7155;DHT22;3619;53.784;10.440;2023-11-21T13:37:57;5.40;99.90
7155;DHT22;3619;53.784;10.440;2023-11-21T13:40:26;5.30;99.90
7155;DHT22;3619;53.784;10.440;2023-11-21T13:42:53;5.30;99.90
7155;DHT22;3619;53.784;10.440;2023-11-21T13:45:21;5.20;99.90
7155;DHT22;3619;53.784;10.440;2023-11-21T13:47:53;5.20;99.90
7155;DHT22;3619;53.784;10.440;2023-11-21T13:50:24;5.20;99.90
7155;DHT22;3619;53.784;10.440;2023-11-21T13:52:56;5.20;99.90
7155;DHT22;3619;53.784;10.440;2023-11-21T13:55:23;5.30;99.90
7155;DHT22;3619;53.784;10.440;2023-11-21T13:57:51;5.30;99.90
7155;DHT22;3619;53.784;10.440;2023-11-21T14:00:20;5.30;99.90
7155;DHT22;3619;53.784;10.440;2023-11-21T14:03:03;5.40;99.90
7155;DHT22;3619;53.784;10.440;2023-11-21T14:05:34;5.30;99.90
7155;DHT22;3619;53.784;10.440;2023-11-21T14:08:01;5.30;99.90
7155;DHT22;3619;53.784;10.440;2023-11-21T14:10:30;5.40;99.90
7155;DHT22;3619;53.784;10.440;2023-11-21T14:13:05;5.40;99.90
7155;DHT22;3619;53.784;10.440;2023-11-21T14:15:32;5.40;99.90
7155;DHT22;3619;53.784;10.440;2023-11-21T14:18:05;5.30;99.90
7155;DHT22;3619;53.784;10.440;2023-11-21T14:20:37;5.30;99.90
7155;DHT22;3619;53.784;10.440;2023-11-21T14:23:04;5.30;99.90
7155;DHT22;3619;53.784;10.440;2023-11-21T14:25:34;5.30;99.90
7155;DHT22;3619;53.784;10.440;2023-11-21T14:28:02;5.30;99.90
7155;DHT22;3619;53.784;10.440;2023-11-21T14:30:30;5.30;99.90
7155;DHT22;3619;53.784;10.440;2023-11-21T14:33:01;5.20;99.90
7155;DHT22;3619;53.784;10.440;2023-11-21T14:35:29;5.20;99.90
7155;DHT22;3619;53.784;10.440;2023-11-21T14:37:58;5.20;99.90
7155;DHT22;3619;53.784;10.440;2023-11-21T14:40:26;5.20;99.90
7155;DHT22;3619;53.784;10.440;2023-11-21T14:42:59;5.20;99.90
7155;DHT22;3619;53.784;10.440;2023-11-21T14:45:25;5.10;99.90
7155;DHT22;3619;53.784;10.440;2023-11-21T14:47:54;5.10;99.90
7155;DHT22;3619;53.784;10.440;2023-11-21T14:50:35;5.10;99.90
7155;DHT22;3619;53.784;10.440;2023-11-21T14:53:16;5.00;99.90
7155;DHT22;3619;53.784;10.440;2023-11-21T14:55:54;5.00;99.90
7155;DHT22;3619;53.784;10.440;2023-11-21T14:58:25;5.00;99.90
7155;DHT22;3619;53.784;10.440;2023-11-21T15:00:54;4.90;99.90
7155;DHT22;3619;53.784;10.440;2023-11-21T15:03:24;4.90;99.90
7155;DHT22;3619;53.784;10.440;2023-11-21T15:06:10;4.90;99.90
7155;DHT22;3619;53.784;10.440;2023-11-21T15:08:53;5.00;99.90
7155;DHT22;3619;53.784;10.440;2023-11-21T15:11:33;4.90;99.90
7155;DHT22;3619;53.784;10.440;2023-11-21T15:14:00;5.00;99.90
7155;DHT22;3619;53.784;10.440;2023-11-21T15:16:32;5.00;99.90
7155;DHT22;3619;53.784;10.440;2023-11-21T15:18:59;5.00;99.90
7155;DHT22;3619;53.784;10.440;2023-11-21T15:21:27;5.00;99.90
7155;DHT22;3619;53.784;10.440;2023-11-21T15:23:54;5.10;99.90
7155;DHT22;3619;53.784;10.440;2023-11-21T15:26:21;5.00;99.90
7155;DHT22;3619;53.784;10.440;2023-11-21T15:28:48;5.00;99.90
7155;DHT22;3619;53.784;10.440;2023-11-21T15:31:15;4.90;99.90
7155;DHT22;3619;53.784;10.440;2023-11-21T15:33:46;5.00;99.90
7155;DHT22;3619;53.784;10.440;2023-11-21T15:36:13;5.00;99.90
7155;DHT22;3619;53.784;10.440;2023-11-21T15:38:41;5.10;99.90
7155;DHT22;3619;53.784;10.440;2023-11-21T15:41:09;5.10;99.90
7155;DHT22;3619;53.784;10.440;2023-11-21T15:43:36;5.10;99.90
7155;DHT22;3619;53.784;10.440;2023-11-21T15:46:03;5.10;99.90
7155;DHT22;3619;53.784;10.440;2023-11-21T15:48:33;5.10;99.90
7155;DHT22;3619;53.784;10.440;2023-11-21T15:51:00;5.00;99.90
7155;DHT22;3619;53.784;10.440;2023-11-21T15:53:28;5.10;99.90
7155;DHT22;3619;53.784;10.440;2023-11-21T15:55:56;5.10;99.90
7155;DHT22;3619;53.784;10.440;2023-11-21T15:58:23;5.00;99.90
7155;DHT22;3619;53.784;10.440;2023-11-21T16:00:51;5.10;99.90
7155;DHT22;3619;53.784;10.440;2023-11-21T16:03:18;5.10;99.90
7155;DHT22;3619;53.784;10.440;2023-11-21T16:05:47;5.10;99.90
7155;DHT22;3619;53.784;10.440;2023-11-21T16:08:13;5.00;99.90
7155;DHT22;3619;53.784;10.440;2023-11-21T16:10:40;4.90;99.90